首页
METAR-TAF:

METAR-TAF

机场 :

Greeley-Weld County Airport

格里利, 科羅拉多州, 美国

纬度: 40-26N, 经度: 104-38W, 海拔: 1420米

当前天气观测

该预报发布于28分钟前的08:56 UTC
风速5节,风向北转东北
温度 16°C
湿度 72%
气压 1018 hPa
能見度: 16.1公里
天空无云

METAR: KGXY 010856Z 03005KT 10SM CLR 16/11 A3005 RMK AO2 SLP128 T01560111 58005

时间: 03:24 (09:24 UTC)


TAF: 丢失

超过4000个机场的气象观测和天气预报(METAR&TAF报告)。

可查询的气象台以黄色和红色小点在地图上表示。

将鼠标移到小点上方,可查看气象台名称。

然后点击查看天气观测和预报。

如需切换地图:点击带黑十字的绿色按钮放大地图;点击带横线的绿色按钮缩小地图;或者点击绿色箭头查看邻近地区的地图。


METAR-TAF: